createdAt,value
2018-05-08T00:00:49.311Z,0
2018-05-08T00:01:49.831Z,0
2018-05-08T00:02:49.476Z,0
2018-05-08T00:03:49.500Z,0
2018-05-08T00:04:49.457Z,0
2018-05-08T00:05:49.306Z,0
2018-05-08T00:06:49.481Z,0
2018-05-08T00:07:49.534Z,0
2018-05-08T00:08:49.512Z,0
2018-05-08T00:09:49.501Z,0
2018-05-08T00:10:49.527Z,0
2018-05-08T00:11:49.202Z,0
2018-05-08T00:12:49.470Z,0
2018-05-08T00:13:49.714Z,0
2018-05-08T00:14:49.186Z,0
2018-05-08T00:15:49.461Z,0
2018-05-08T00:16:49.458Z,0
2018-05-08T00:17:49.708Z,0
2018-05-08T00:18:49.217Z,0
2018-05-08T00:19:49.198Z,0
2018-05-08T00:20:48.933Z,0
2018-05-08T00:21:49.728Z,0
2018-05-08T00:22:49.454Z,0
2018-05-08T00:23:49.470Z,0
2018-05-08T00:24:49.477Z,0
2018-05-08T00:25:49.471Z,0
2018-05-08T00:26:49.714Z,0
2018-05-08T00:27:49.447Z,0
2018-05-08T00:28:49.456Z,0
2018-05-08T00:29:49.495Z,0
2018-05-08T00:30:49.497Z,0
2018-05-08T00:31:49.697Z,0
2018-05-08T00:32:49.437Z,0
2018-05-08T00:33:49.446Z,0
2018-05-08T00:34:49.470Z,0
2018-05-08T00:35:49.276Z,0
2018-05-08T00:36:49.718Z,0
2018-05-08T00:37:49.443Z,0
2018-05-08T00:38:49.709Z,0
2018-05-08T00:39:49.185Z,0
2018-05-08T00:40:49.210Z,0
2018-05-08T00:41:49.447Z,0
2018-05-08T00:42:49.690Z,0
2018-05-08T00:43:49.471Z,0
2018-05-08T00:44:49.446Z,0
2018-05-08T00:45:49.753Z,0
2018-05-08T00:46:49.443Z,0
2018-05-08T00:47:49.198Z,0
2018-05-08T00:48:49.180Z,0
2018-05-08T00:49:49.419Z,0
2018-05-08T00:50:49.238Z,0
2018-05-08T00:51:49.428Z,0
2018-05-08T00:52:49.495Z,0
2018-05-08T00:53:49.439Z,0
2018-05-08T00:54:49.432Z,0
2018-05-08T00:55:50.836Z,0
2018-05-08T00:56:49.164Z,0
2018-05-08T00:57:49.679Z,0
2018-05-08T00:58:49.409Z,0
2018-05-08T00:59:49.688Z,0
2018-05-08T01:00:49.444Z,0
2018-05-08T01:01:49.414Z,0
2018-05-08T01:02:49.677Z,0
2018-05-08T01:03:49.420Z,0
2018-05-08T01:04:49.172Z,0
2018-05-08T01:05:49.430Z,0
2018-05-08T01:06:49.682Z,0
2018-05-08T01:07:49.138Z,0
2018-05-08T01:08:49.677Z,0
2018-05-08T01:09:49.411Z,0
2018-05-08T01:10:49.665Z,0
2018-05-08T01:11:49.421Z,0
2018-05-08T01:12:49.136Z,0
2018-05-08T01:13:49.696Z,0
2018-05-08T01:14:49.723Z,0
2018-05-08T01:15:49.456Z,0
2018-05-08T01:16:49.665Z,0
2018-05-08T01:17:49.147Z,0
2018-05-08T01:18:49.393Z,0
2018-05-08T01:19:49.667Z,0
2018-05-08T01:20:49.396Z,0
2018-05-08T01:21:49.403Z,0
2018-05-08T01:22:49.132Z,0
2018-05-08T01:23:49.657Z,0
2018-05-08T01:24:49.400Z,0
2018-05-08T01:25:49.666Z,0
2018-05-08T01:26:48.864Z,0
2018-05-08T01:27:49.647Z,0
2018-05-08T01:28:49.652Z,0
2018-05-08T01:29:49.145Z,0
2018-05-08T01:30:49.443Z,0
2018-05-08T01:31:49.132Z,0
2018-05-08T01:32:49.110Z,0
2018-05-08T01:33:49.367Z,0
2018-05-08T01:34:49.376Z,0
2018-05-08T01:35:49.899Z,0
2018-05-08T01:36:49.624Z,0
2018-05-08T01:37:49.370Z,0
2018-05-08T01:38:49.361Z,0
2018-05-08T01:39:49.371Z,0
2018-05-08T01:40:49.699Z,0
2018-05-08T01:41:49.375Z,0
2018-05-08T01:42:49.606Z,0
2018-05-08T01:43:49.351Z,0
2018-05-08T01:44:49.452Z,0
2018-05-08T01:45:49.638Z,0
2018-05-08T01:46:49.346Z,0
2018-05-08T01:47:49.611Z,0
2018-05-08T01:48:49.355Z,0
2018-05-08T01:49:49.347Z,0
2018-05-08T01:50:49.710Z,0
2018-05-08T01:51:49.620Z,0
2018-05-08T01:52:49.345Z,0
2018-05-08T01:53:49.142Z,0
2018-05-08T01:54:49.055Z,0
2018-05-08T01:55:49.629Z,0
2018-05-08T01:56:49.616Z,0
2018-05-08T01:57:49.314Z,0
2018-05-08T01:58:49.588Z,0
2018-05-08T01:59:49.061Z,0
2018-05-08T02:00:49.591Z,0
2018-05-08T02:01:49.355Z,0
2018-05-08T02:02:49.596Z,0
2018-05-08T02:03:49.333Z,0
2018-05-08T02:04:49.585Z,0
2018-05-08T02:05:49.061Z,0
2018-05-08T02:06:49.055Z,0
2018-05-08T02:07:49.064Z,0
2018-05-08T02:08:49.312Z,0
2018-05-08T02:09:49.049Z,0
2018-05-08T02:10:49.395Z,0
2018-05-08T02:11:49.303Z,0
2018-05-08T02:12:49.047Z,0
2018-05-08T02:13:49.562Z,0
2018-05-08T02:14:49.298Z,0
2018-05-08T02:15:49.685Z,0
2018-05-08T02:16:49.552Z,0
2018-05-08T02:17:49.301Z,0
2018-05-08T02:18:49.559Z,0
2018-05-08T02:19:49.289Z,0
2018-05-08T02:20:49.092Z,0
2018-05-08T02:21:49.288Z,0
2018-05-08T02:22:49.295Z,0
2018-05-08T02:23:49.570Z,0
2018-05-08T02:24:49.551Z,0
2018-05-08T02:25:49.036Z,0
2018-05-08T02:26:49.571Z,0
2018-05-08T02:27:49.542Z,0
2018-05-08T02:28:49.020Z,0
2018-05-08T02:29:49.053Z,0
2018-05-08T02:30:49.028Z,0
2018-05-08T02:31:49.290Z,0
2018-05-08T02:32:49.571Z,0
2018-05-08T02:33:49.534Z,0
2018-05-08T02:34:49.027Z,0
2018-05-08T02:35:49.277Z,0
2018-05-08T02:36:49.273Z,0
2018-05-08T02:37:49.611Z,0
2018-05-08T02:38:49.533Z,0
2018-05-08T02:39:48.740Z,0
2018-05-08T02:40:49.529Z,0
2018-05-08T02:41:49.513Z,0
2018-05-08T02:42:49.261Z,0
2018-05-08T02:43:49.002Z,0
2018-05-08T02:44:49.522Z,0
2018-05-08T02:45:49.105Z,0
2018-05-08T02:46:49.282Z,0
2018-05-08T02:47:49.256Z,0
2018-05-08T02:48:49.247Z,0
2018-05-08T02:49:49.504Z,0
2018-05-08T02:50:48.998Z,0
2018-05-08T02:51:49.256Z,0
2018-05-08T02:52:49.516Z,0
2018-05-08T02:53:49.259Z,0
2018-05-08T02:54:48.993Z,0
2018-05-08T02:55:49.395Z,0
2018-05-08T02:56:49.505Z,0
2018-05-08T02:57:49.244Z,0
2018-05-08T02:58:49.505Z,0
2018-05-08T02:59:49.499Z,0
2018-05-08T03:00:49.253Z,0
2018-05-08T03:01:49.484Z,0
2018-05-08T03:02:48.706Z,0
2018-05-08T03:03:49.488Z,0
2018-05-08T03:04:49.208Z,0
2018-05-08T03:05:49.467Z,0
2018-05-08T03:06:49.236Z,0
2018-05-08T03:07:49.216Z,0
2018-05-08T03:08:48.974Z,4
2018-05-08T03:09:49.239Z,4
2018-05-08T03:10:49.268Z,4
2018-05-08T03:11:48.950Z,0
2018-05-08T03:12:48.969Z,0
2018-05-08T03:13:48.959Z,4
2018-05-08T03:14:48.938Z,4
2018-05-08T03:15:49.005Z,4
2018-05-08T03:16:49.481Z,4
2018-05-08T03:17:49.547Z,4
2018-05-08T03:18:49.214Z,4
2018-05-08T03:19:49.221Z,4
2018-05-08T03:20:49.254Z,4
2018-05-08T03:21:49.215Z,8
2018-05-08T03:22:48.950Z,8
2018-05-08T03:23:48.929Z,12
2018-05-08T03:24:48.929Z,8
2018-05-08T03:25:48.921Z,12
2018-05-08T03:26:51.640Z,16
2018-05-08T03:27:48.949Z,16
2018-05-08T03:28:49.191Z,20
2018-05-08T03:29:49.173Z,24
2018-05-08T03:30:49.262Z,24
2018-05-08T03:31:48.946Z,28
2018-05-08T03:32:49.350Z,36
2018-05-08T03:33:48.896Z,40
2018-05-08T03:34:49.421Z,44
2018-05-08T03:35:49.248Z,52
2018-05-08T03:36:49.156Z,56
2018-05-08T03:37:49.065Z,68
2018-05-08T03:38:49.157Z,72
2018-05-08T03:39:49.207Z,84
2018-05-08T03:40:49.226Z,96
2018-05-08T03:41:49.140Z,108
2018-05-08T03:42:48.901Z,120
2018-05-08T03:43:49.180Z,132
2018-05-08T03:44:48.897Z,148
2018-05-08T03:45:48.913Z,164
2018-05-08T03:46:49.147Z,180
2018-05-08T03:47:49.132Z,192
2018-05-08T03:48:48.884Z,212
2018-05-08T03:49:49.142Z,232
2018-05-08T03:50:48.872Z,256
2018-05-08T03:51:49.141Z,280
2018-05-08T03:52:49.417Z,308
2018-05-08T03:53:49.130Z,332
2018-05-08T03:54:48.858Z,360
2018-05-08T03:55:49.165Z,400
2018-05-08T03:56:49.630Z,432
2018-05-08T03:57:49.113Z,456
2018-05-08T03:58:48.854Z,484
2018-05-08T03:59:48.848Z,516
2018-05-08T04:00:49.403Z,552
2018-05-08T04:01:48.838Z,588
2018-05-08T04:02:48.839Z,624
2018-05-08T04:03:49.112Z,664
2018-05-08T04:04:48.571Z,720
2018-05-08T04:05:48.836Z,760
2018-05-08T04:06:48.827Z,784
2018-05-08T04:07:49.354Z,828
2018-05-08T04:08:49.140Z,868
2018-05-08T04:09:48.893Z,908
2018-05-08T04:10:48.637Z,952
2018-05-08T04:11:49.102Z,996
2018-05-08T04:12:49.114Z,1044
2018-05-08T04:13:49.077Z,1116
2018-05-08T04:14:48.549Z,1164
2018-05-08T04:15:49.118Z,1180
2018-05-08T04:16:49.058Z,1228
2018-05-08T04:17:49.073Z,1276
2018-05-08T04:18:48.543Z,1328
2018-05-08T04:19:48.843Z,1624
2018-05-08T04:20:48.820Z,2332
2018-05-08T04:21:49.078Z,3040
2018-05-08T04:22:49.098Z,3440
2018-05-08T04:23:49.060Z,3692
2018-05-08T04:24:48.792Z,3848
2018-05-08T04:25:49.326Z,3944
2018-05-08T04:26:49.354Z,4052
2018-05-08T04:27:48.807Z,4200
2018-05-08T04:28:48.547Z,4376
2018-05-08T04:29:49.328Z,4552
2018-05-08T04:30:48.798Z,4728
2018-05-08T04:31:49.045Z,4840
2018-05-08T04:32:48.532Z,5108
2018-05-08T04:33:49.046Z,4996
2018-05-08T04:34:48.784Z,5204
2018-05-08T04:35:49.046Z,4096
2018-05-08T04:36:49.164Z,3720
2018-05-08T04:37:49.048Z,3564
2018-05-08T04:38:49.063Z,3908
2018-05-08T04:39:49.054Z,5340
2018-05-08T04:40:49.147Z,5672
2018-05-08T04:41:49.340Z,6456
2018-05-08T04:42:49.054Z,6212
2018-05-08T04:43:49.152Z,5616
2018-05-08T04:44:49.069Z,6188
2018-05-08T04:45:49.387Z,6448
2018-05-08T04:46:49.099Z,6628
2018-05-08T04:47:49.075Z,6828
2018-05-08T04:48:49.065Z,6952
2018-05-08T04:49:49.340Z,7084
2018-05-08T04:50:49.347Z,7540
2018-05-08T04:51:49.363Z,7812
2018-05-08T04:52:49.345Z,7332
2018-05-08T04:53:49.344Z,7508
2018-05-08T04:54:49.363Z,7676
2018-05-08T04:55:49.193Z,7644
2018-05-08T04:56:50.163Z,7516
2018-05-08T04:57:48.840Z,7592
2018-05-08T04:58:48.834Z,7584
2018-05-08T04:59:49.112Z,7596
2018-05-08T05:00:49.401Z,7676
2018-05-08T05:01:49.106Z,7792
2018-05-08T05:02:49.372Z,7824
2018-05-08T05:03:48.590Z,9328
2018-05-08T05:04:49.138Z,9404
2018-05-08T05:05:48.863Z,7668
2018-05-08T05:06:49.389Z,7264
2018-05-08T05:07:49.128Z,7100
2018-05-08T05:08:49.384Z,6732
2018-05-08T05:09:49.134Z,6320
2018-05-08T05:10:49.209Z,5832
2018-05-08T05:11:49.402Z,5392
2018-05-08T05:12:48.977Z,4992
2018-05-08T05:13:49.409Z,4800
2018-05-08T05:14:49.183Z,10524
2018-05-08T05:15:48.929Z,10728
2018-05-08T05:16:49.759Z,10704
2018-05-08T05:17:49.254Z,4448
2018-05-08T05:18:48.927Z,4244
2018-05-08T05:19:49.195Z,4292
2018-05-08T05:20:49.292Z,4280
2018-05-08T05:21:48.942Z,4288
2018-05-08T05:22:48.934Z,4292
2018-05-08T05:23:48.947Z,4316
2018-05-08T05:24:49.191Z,4484
2018-05-08T05:25:49.462Z,11816
2018-05-08T05:26:49.473Z,4504
2018-05-08T05:27:49.998Z,5044
2018-05-08T05:28:49.222Z,5488
2018-05-08T05:29:49.225Z,5756
2018-05-08T05:30:49.502Z,6152
2018-05-08T05:31:48.980Z,6656
2018-05-08T05:32:49.241Z,7176
2018-05-08T05:33:49.514Z,7716
2018-05-08T05:34:49.007Z,7848
2018-05-08T05:35:48.750Z,7844
2018-05-08T05:36:49.505Z,12892
2018-05-08T05:37:48.978Z,12968
2018-05-08T05:38:49.509Z,12864
2018-05-08T05:39:49.247Z,6768
2018-05-08T05:40:49.264Z,6992
2018-05-08T05:41:49.002Z,6612
2018-05-08T05:42:49.704Z,6188
2018-05-08T05:43:48.739Z,5708
2018-05-08T05:44:49.513Z,5276
2018-05-08T05:45:49.345Z,4960
2018-05-08T05:46:49.016Z,4772
2018-05-08T05:47:49.302Z,13412
2018-05-08T05:48:49.307Z,13460
2018-05-08T05:49:48.758Z,13472
2018-05-08T05:50:48.853Z,13360
2018-05-08T05:51:49.554Z,13516
2018-05-08T05:52:49.312Z,13588
2018-05-08T05:53:49.051Z,13508
2018-05-08T05:54:49.396Z,13556
2018-05-08T05:55:49.369Z,13564
2018-05-08T05:56:49.049Z,13552
2018-05-08T05:57:53.853Z,13644
2018-05-08T05:58:49.321Z,13712
2018-05-08T05:59:49.324Z,13876
2018-05-08T06:00:49.445Z,13880
2018-05-08T06:01:49.337Z,13924
2018-05-08T06:02:48.820Z,13968
2018-05-08T06:03:49.386Z,13992
2018-05-08T06:04:49.092Z,13816
2018-05-08T06:05:49.411Z,13964
2018-05-08T06:06:49.373Z,13900
2018-05-08T06:07:49.376Z,13904
2018-05-08T06:08:49.379Z,13896
2018-05-08T06:09:49.387Z,13912
2018-05-08T06:10:49.161Z,13856
2018-05-08T06:11:49.420Z,14148
2018-05-08T06:12:49.405Z,14116
2018-05-08T06:22:41.269Z,13200
2018-05-08T06:23:41.533Z,13380
2018-05-08T06:24:41.266Z,13312
2018-05-08T06:25:41.275Z,13488
2018-05-08T06:26:41.726Z,13652
2018-05-08T06:27:41.542Z,13748
2018-05-08T06:28:41.169Z,13824
2018-05-08T06:29:41.297Z,13872
2018-05-08T06:30:41.571Z,13864
2018-05-08T06:31:41.123Z,13908
2018-05-08T06:32:41.346Z,14128
2018-05-08T06:33:41.587Z,14188
2018-05-08T06:34:41.135Z,14192
2018-05-08T06:35:41.087Z,14316
2018-05-08T06:36:41.112Z,14404
2018-05-08T06:37:42.164Z,14404
2018-05-08T06:38:41.404Z,14464
2018-05-08T06:39:42.118Z,14520
2018-05-08T06:40:41.139Z,14600
2018-05-08T06:41:41.657Z,14600
2018-05-08T06:42:40.888Z,14640
2018-05-08T06:43:41.747Z,14680
2018-05-08T06:44:41.425Z,14704
2018-05-08T06:45:41.713Z,14544
2018-05-08T06:46:41.966Z,14588
2018-05-08T06:47:41.446Z,14648
2018-05-08T06:48:41.461Z,14576
2018-05-08T06:49:41.454Z,14724
2018-05-08T06:50:41.208Z,14776
2018-05-08T06:51:41.460Z,14772
2018-05-08T06:52:41.523Z,14760
2018-05-08T06:53:41.223Z,14764
2018-05-08T06:54:41.767Z,14792
2018-05-08T06:55:41.247Z,14832
2018-05-08T06:56:41.512Z,14908
2018-05-08T06:57:41.797Z,14868
2018-05-08T06:58:41.542Z,14812
2018-05-08T06:59:41.809Z,14840
2018-05-08T07:00:41.556Z,14856
2018-05-08T07:01:41.829Z,14840
2018-05-08T07:02:41.335Z,14824
2018-05-08T07:03:41.585Z,14784
2018-05-08T07:04:41.605Z,14800
2018-05-08T07:05:41.889Z,14744
2018-05-08T07:06:41.868Z,14712
2018-05-08T07:07:41.866Z,14704
2018-05-08T07:08:41.623Z,14624
2018-05-08T07:09:41.912Z,14552
2018-05-08T07:10:41.668Z,14448
2018-05-08T07:11:41.652Z,14260
2018-05-08T07:12:41.661Z,14000
2018-05-08T07:13:41.669Z,13692
2018-05-08T07:14:41.947Z,13364
2018-05-08T07:15:41.860Z,12968
2018-05-08T07:16:41.720Z,12400
2018-05-08T07:17:41.972Z,11732
2018-05-08T07:18:41.720Z,11304
2018-05-08T07:19:41.459Z,11256
2018-05-08T07:20:41.994Z,11484
2018-05-08T07:21:42.114Z,11668
2018-05-08T07:22:41.799Z,11968
2018-05-08T07:23:42.027Z,12224
2018-05-08T07:24:41.242Z,12248
2018-05-08T07:25:41.791Z,12324
2018-05-08T07:26:42.052Z,12544
2018-05-08T07:27:41.845Z,12852
2018-05-08T07:28:42.036Z,13136
2018-05-08T07:29:41.811Z,13284
2018-05-08T07:30:42.232Z,13368
2018-05-08T07:31:41.817Z,13400
2018-05-08T07:32:42.892Z,13416
2018-05-08T07:33:41.570Z,13428
2018-05-08T07:34:41.851Z,13432
2018-05-08T07:35:42.111Z,13452
2018-05-08T07:36:41.600Z,13456
2018-05-08T07:37:41.602Z,13456
2018-05-08T07:38:42.157Z,13484
2018-05-08T07:39:42.145Z,13448
2018-05-08T07:40:42.155Z,13428
2018-05-08T07:41:41.929Z,13296
2018-05-08T07:42:41.897Z,12956
2018-05-08T07:43:41.916Z,12496
2018-05-08T07:44:42.182Z,12256
2018-05-08T07:45:41.959Z,12016
2018-05-08T07:46:41.934Z,11468
2018-05-08T07:47:42.218Z,11192
2018-05-08T07:48:41.954Z,11736
2018-05-08T07:49:41.975Z,12548
2018-05-08T07:50:41.739Z,12936
2018-05-08T07:51:41.812Z,12924
2018-05-08T07:52:41.732Z,12856
2018-05-08T07:53:41.738Z,12776
2018-05-08T07:54:41.998Z,12736
2018-05-08T07:55:42.025Z,12664
2018-05-08T07:56:42.017Z,12704
2018-05-08T07:57:42.304Z,12664
2018-05-08T07:58:42.043Z,12636
2018-05-08T07:59:42.020Z,12632
2018-05-08T08:00:42.069Z,12604
2018-05-08T08:01:41.797Z,12524
2018-05-08T08:02:42.069Z,12504
2018-05-08T08:03:42.430Z,12428
2018-05-08T08:04:42.359Z,12376
2018-05-08T08:05:42.082Z,12300
2018-05-08T08:06:42.357Z,12224
2018-05-08T08:07:42.165Z,12128
2018-05-08T08:08:42.126Z,12060
2018-05-08T08:09:42.379Z,11984
2018-05-08T08:10:42.385Z,11884
2018-05-08T08:11:42.135Z,11804
2018-05-08T08:12:42.422Z,11708
2018-05-08T08:13:42.146Z,11604
2018-05-08T08:14:42.166Z,11516
2018-05-08T08:15:41.676Z,11464
2018-05-08T08:16:42.427Z,11372
2018-05-08T08:17:41.678Z,11316
2018-05-08T08:18:42.475Z,11272
2018-05-08T08:19:41.937Z,11204
2018-05-08T08:20:42.466Z,11144
2018-05-08T08:21:42.475Z,11092
2018-05-08T08:22:41.693Z,11032
2018-05-08T08:23:42.295Z,10960
2018-05-08T08:24:41.995Z,10928
2018-05-08T08:25:42.255Z,10860
2018-05-08T08:26:42.529Z,10804
2018-05-08T08:27:42.255Z,10736
2018-05-08T08:28:42.261Z,10688
2018-05-08T08:29:42.677Z,10624
2018-05-08T08:30:42.020Z,10588
2018-05-08T08:31:42.286Z,10540
2018-05-08T08:32:42.280Z,10444
2018-05-08T08:33:42.329Z,10348
2018-05-08T08:34:42.314Z,10248
2018-05-08T08:35:42.497Z,10140
2018-05-08T08:36:42.329Z,10116
2018-05-08T08:37:42.360Z,10044
2018-05-08T08:38:42.385Z,10004
2018-05-08T08:39:42.375Z,9936
2018-05-08T08:40:42.375Z,9892
2018-05-08T08:41:42.375Z,9844
2018-05-08T08:42:42.390Z,9800
2018-05-08T08:43:42.378Z,9768
2018-05-08T08:44:42.692Z,9748
2018-05-08T08:45:42.666Z,9740
2018-05-08T08:46:42.678Z,9732
2018-05-08T08:47:42.320Z,9716
2018-05-08T08:48:42.428Z,9684
2018-05-08T08:49:42.445Z,9644
2018-05-08T08:50:42.440Z,9632
2018-05-08T08:51:42.171Z,9576
2018-05-08T08:52:42.447Z,9544
2018-05-08T08:53:42.214Z,9520
2018-05-08T08:54:42.756Z,9500
2018-05-08T08:55:42.758Z,9460
2018-05-08T08:56:42.759Z,9448
2018-05-08T08:57:42.233Z,9396
2018-05-08T08:58:42.760Z,9368
2018-05-08T08:59:42.509Z,9364
2018-05-08T09:00:42.821Z,9380
2018-05-08T09:01:42.260Z,9396
2018-05-08T09:02:42.518Z,9396
2018-05-08T09:03:42.810Z,9392
2018-05-08T09:04:42.531Z,9396
2018-05-08T09:05:42.840Z,9392
2018-05-08T09:06:42.535Z,9408
2018-05-08T09:07:42.298Z,9420
2018-05-08T09:08:42.614Z,9440
2018-05-08T09:09:42.299Z,9428
2018-05-08T09:10:42.564Z,9428
2018-05-08T09:11:42.320Z,9440
2018-05-08T09:12:42.324Z,9444
2018-05-08T09:13:42.679Z,9468
2018-05-08T09:14:42.845Z,9456
2018-05-08T09:15:42.863Z,9464
2018-05-08T09:16:42.337Z,9468
2018-05-08T09:17:42.606Z,9464
2018-05-08T09:18:42.106Z,9460
2018-05-08T09:19:42.735Z,9468
2018-05-08T09:20:42.635Z,9464
2018-05-08T09:21:42.886Z,9472
2018-05-08T09:22:42.630Z,9464
2018-05-08T09:23:42.698Z,9460
2018-05-08T09:24:42.412Z,9468
2018-05-08T09:25:42.673Z,9476
2018-05-08T09:26:42.642Z,9508
2018-05-08T09:27:42.774Z,9492
2018-05-08T09:28:42.972Z,9464
2018-05-08T09:29:42.416Z,9452
2018-05-08T09:30:42.952Z,9460
2018-05-08T09:31:42.406Z,9448
2018-05-08T09:32:42.692Z,9432
2018-05-08T09:33:42.693Z,9416
2018-05-08T09:34:42.694Z,9384
2018-05-08T09:35:42.731Z,9360
2018-05-08T09:36:42.975Z,9336
2018-05-08T09:37:42.993Z,9268
2018-05-08T09:38:42.964Z,9248
2018-05-08T09:39:42.730Z,9212
2018-05-08T09:40:42.471Z,9180
2018-05-08T09:41:42.460Z,9160
2018-05-08T09:42:43.051Z,9116
2018-05-08T09:43:42.743Z,9072
2018-05-08T09:44:42.997Z,9040
2018-05-08T09:45:42.483Z,8984
2018-05-08T09:46:43.038Z,8928
2018-05-08T09:47:42.778Z,8900
2018-05-08T09:48:43.054Z,8852
2018-05-08T09:49:42.791Z,8764
2018-05-08T09:50:42.799Z,8740
2018-05-08T09:51:42.786Z,8700
2018-05-08T09:52:42.796Z,8636
2018-05-08T09:53:42.857Z,8552
2018-05-08T09:54:42.808Z,8532
2018-05-08T09:55:42.562Z,8472
2018-05-08T09:56:42.266Z,8388
2018-05-08T09:57:42.808Z,8348
2018-05-08T09:58:43.081Z,8280
2018-05-08T09:59:42.821Z,8216
2018-05-08T10:00:42.861Z,8164
2018-05-08T10:01:42.824Z,8128
2018-05-08T10:02:42.827Z,8080
2018-05-08T10:03:42.852Z,8020
2018-05-08T10:04:42.862Z,7980
2018-05-08T10:05:42.846Z,7932
2018-05-08T10:06:43.426Z,7868
2018-05-08T10:07:42.872Z,7812
2018-05-08T10:08:42.881Z,7752
2018-05-08T10:09:42.879Z,7712
2018-05-08T10:10:42.912Z,7664
2018-05-08T10:11:43.120Z,7624
2018-05-08T10:12:43.140Z,7592
2018-05-08T10:13:42.925Z,7556
2018-05-08T10:14:42.939Z,7504
2018-05-08T10:15:42.917Z,7468
2018-05-08T10:16:42.635Z,7436
2018-05-08T10:17:42.648Z,7432
2018-05-08T10:18:43.157Z,7388
2018-05-08T10:19:42.956Z,7352
2018-05-08T10:20:43.432Z,7324
2018-05-08T10:21:42.651Z,7316
2018-05-08T10:22:42.970Z,7284
2018-05-08T10:53:06.739Z,6900
2018-05-08T10:54:06.693Z,6900
2018-05-08T10:55:07.250Z,6924
2018-05-08T10:56:07.218Z,6900
2018-05-08T10:57:06.967Z,6880
2018-05-08T10:58:06.701Z,6876
2018-05-08T10:59:06.722Z,6860
2018-05-08T11:00:07.247Z,6860
2018-05-08T11:01:06.977Z,6848
2018-05-08T11:02:06.713Z,6844
2018-05-08T11:03:07.233Z,6840
2018-05-08T11:04:06.999Z,6840
2018-05-08T11:05:07.016Z,6820
2018-05-08T11:06:06.749Z,6820
2018-05-08T11:07:06.984Z,6804
2018-05-08T11:08:07.021Z,6776
2018-05-08T11:09:07.273Z,6760
2018-05-08T11:10:07.017Z,6728
2018-05-08T11:11:07.033Z,6704
2018-05-08T11:12:06.495Z,6684
2018-05-08T11:13:06.750Z,6664
2018-05-08T11:14:07.020Z,6648
2018-05-08T11:15:07.293Z,6624
2018-05-08T11:16:07.039Z,6604
2018-05-08T11:17:06.775Z,6576
2018-05-08T11:18:07.199Z,6536
2018-05-08T11:19:07.045Z,6516
2018-05-08T11:20:06.796Z,6480
2018-05-08T11:21:06.800Z,6448
2018-05-08T11:22:06.855Z,6420
2018-05-08T11:23:06.856Z,6388
2018-05-08T11:24:07.083Z,6360
2018-05-08T11:25:06.552Z,6320
2018-05-08T11:26:07.089Z,6304
2018-05-08T11:27:07.099Z,6276
2018-05-08T11:28:07.380Z,6244
2018-05-08T11:29:06.584Z,6220
2018-05-08T11:30:07.104Z,6196
2018-05-08T11:31:06.595Z,6164
2018-05-08T11:32:07.103Z,6152
2018-05-08T11:33:08.195Z,6124
2018-05-08T11:34:07.116Z,6108
2018-05-08T11:35:07.397Z,6084
2018-05-08T11:36:07.057Z,6068
2018-05-08T11:37:06.631Z,6044
2018-05-08T11:38:06.875Z,6024
2018-05-08T11:39:07.146Z,6008
2018-05-08T11:40:06.893Z,5980
2018-05-08T11:41:06.887Z,5960
2018-05-08T11:42:06.663Z,5944
2018-05-08T11:43:06.647Z,5920
2018-05-08T11:44:07.163Z,5904
2018-05-08T11:45:06.915Z,5896
2018-05-08T11:46:07.207Z,5872
2018-05-08T11:47:06.914Z,5852
2018-05-08T11:48:07.184Z,5832
2018-05-08T11:49:07.212Z,5820
2018-05-08T11:50:07.814Z,5804
2018-05-08T11:51:07.204Z,5780
2018-05-08T11:52:07.462Z,5768
2018-05-08T11:53:07.287Z,5752
2018-05-08T11:54:06.976Z,5736
2018-05-08T11:55:06.964Z,5720
2018-05-08T11:56:06.724Z,5712
2018-05-08T11:57:07.260Z,5700
2018-05-08T11:58:06.983Z,5692
2018-05-08T11:59:07.251Z,5672
2018-05-08T12:00:06.739Z,5668
2018-05-08T12:01:07.143Z,5660
2018-05-08T12:02:07.527Z,5644
2018-05-08T12:03:07.259Z,5628
2018-05-08T12:04:07.152Z,5624
2018-05-08T12:05:07.291Z,5608
2018-05-08T12:06:07.281Z,5592
2018-05-08T12:07:07.291Z,5584
2018-05-08T12:08:06.788Z,5584
2018-05-08T12:09:07.812Z,5580
2018-05-08T12:10:07.579Z,5576
2018-05-08T12:11:07.309Z,5576
2018-05-08T12:12:07.306Z,5572
2018-05-08T12:13:07.320Z,5556
2018-05-08T12:14:07.062Z,5544
2018-05-08T12:15:07.070Z,5540
2018-05-08T12:16:07.349Z,5532
2018-05-08T12:17:07.608Z,5536
2018-05-08T12:18:07.347Z,5536
2018-05-08T12:19:07.604Z,5532
2018-05-08T12:20:07.615Z,5528
2018-05-08T12:21:07.099Z,5524
2018-05-08T12:22:07.667Z,5508
2018-05-08T12:23:07.101Z,5520
2018-05-08T12:24:07.368Z,5508
2018-05-08T12:25:06.849Z,5504
2018-05-08T12:26:07.116Z,5492
2018-05-08T12:27:07.390Z,5508
2018-05-08T12:28:07.677Z,5508
2018-05-08T12:29:07.163Z,5492
2018-05-08T12:30:07.146Z,5484
2018-05-08T12:31:07.408Z,5492
2018-05-08T12:32:07.686Z,5492
2018-05-08T12:33:07.429Z,5504
2018-05-08T12:34:07.421Z,5496
2018-05-08T12:35:06.902Z,5488
2018-05-08T12:36:08.180Z,5488
2018-05-08T12:37:07.696Z,5488
2018-05-08T12:38:07.699Z,5484
2018-05-08T12:39:07.745Z,5492
2018-05-08T12:40:07.468Z,5504
2018-05-08T12:41:06.972Z,5488
2018-05-08T12:42:08.052Z,5484
2018-05-08T12:43:07.199Z,5488
2018-05-08T12:44:07.725Z,5488
2018-05-08T12:45:07.496Z,5500
2018-05-08T12:46:07.220Z,5484
2018-05-08T12:47:07.481Z,5480
2018-05-08T12:48:07.739Z,5460
2018-05-08T12:49:07.237Z,5468
2018-05-08T12:50:06.979Z,5444
2018-05-08T12:51:07.527Z,5456
2018-05-08T12:52:07.235Z,5452
2018-05-08T12:53:06.994Z,5448
2018-05-08T12:54:07.584Z,5428
2018-05-08T12:55:07.532Z,5416
2018-05-08T12:56:07.355Z,5420
2018-05-08T12:57:07.533Z,5412
2018-05-08T12:58:07.314Z,5400
2018-05-08T12:59:07.733Z,5376
2018-05-08T13:00:07.297Z,5364
2018-05-08T13:01:07.308Z,5368
2018-05-08T13:02:07.565Z,5372
2018-05-08T13:03:07.305Z,5368
2018-05-08T13:04:07.572Z,5340
2018-05-08T13:05:07.589Z,5328
2018-05-08T13:06:07.864Z,5328
2018-05-08T13:07:07.583Z,5328
2018-05-08T13:08:07.586Z,5308
2018-05-08T13:09:07.596Z,5300
2018-05-08T13:10:07.972Z,5280
2018-05-08T13:11:07.964Z,5244
2018-05-08T13:12:07.605Z,5240
2018-05-08T13:13:07.618Z,5244
2018-05-08T13:14:07.892Z,5244
2018-05-08T13:15:07.767Z,5216
2018-05-08T13:16:07.904Z,5216
2018-05-08T13:17:07.363Z,5196
2018-05-08T13:18:07.375Z,5196
2018-05-08T13:19:07.657Z,5180
2018-05-08T13:20:07.386Z,5176
2018-05-08T13:21:07.657Z,5176
2018-05-08T13:22:07.918Z,5156
2018-05-08T13:23:07.658Z,5144
2018-05-08T13:24:08.113Z,5132
2018-05-08T13:25:07.399Z,5136
2018-05-08T13:26:07.688Z,5124
2018-05-08T13:27:07.667Z,5120
2018-05-08T13:28:07.437Z,5100
2018-05-08T13:29:07.432Z,5076
2018-05-08T13:30:07.448Z,5080
2018-05-08T13:31:07.907Z,5076
2018-05-08T13:32:07.707Z,5060
2018-05-08T13:33:07.972Z,5060
2018-05-08T13:34:07.447Z,5048
2018-05-08T13:35:08.099Z,5032
2018-05-08T13:36:07.717Z,5036
2018-05-08T13:37:07.981Z,5040
2018-05-08T13:38:07.456Z,5024
2018-05-08T13:39:07.726Z,5020
2018-05-08T13:40:07.739Z,5012
2018-05-08T13:41:08.004Z,5012
2018-05-08T13:42:07.213Z,5004
2018-05-08T13:43:07.507Z,5012
2018-05-08T13:44:07.745Z,5004
2018-05-08T13:45:07.798Z,4996
2018-05-08T13:46:07.536Z,4984
2018-05-08T13:47:07.507Z,4988
2018-05-08T13:48:08.268Z,4988
2018-05-08T13:49:07.516Z,4980
2018-05-08T13:50:07.963Z,4972
2018-05-08T13:51:07.531Z,4964
2018-05-08T13:52:07.793Z,4964
2018-05-08T13:53:07.289Z,4964
2018-05-08T13:54:07.840Z,4956
2018-05-08T13:55:07.958Z,4968
2018-05-08T13:56:07.813Z,4964
2018-05-08T13:57:07.836Z,4964
2018-05-08T13:58:07.833Z,4956
2018-05-08T13:59:08.085Z,4960
2018-05-08T14:00:07.835Z,4960
2018-05-08T14:01:08.043Z,4964
2018-05-08T14:02:07.841Z,4968
2018-05-08T14:03:08.108Z,4968
2018-05-08T14:04:08.115Z,4964
2018-05-08T14:05:07.861Z,4972
2018-05-08T14:06:07.354Z,4980
2018-05-08T14:07:07.653Z,4976
2018-05-08T14:08:07.644Z,4972
2018-05-08T14:09:07.921Z,4964
2018-05-08T14:10:08.212Z,4956
2018-05-08T14:11:07.895Z,4960
2018-05-08T14:12:07.624Z,4964
2018-05-08T14:13:08.121Z,4976
2018-05-08T14:14:07.932Z,4972